Home > Products > Valid Products > TAF

000
FTUS46 KHNX 202320
TAFFAT
TAF
KFAT 202320Z 2100/2124 31007KT P6SM FEW120 SCT200
     FM210200 31013G21KT P6SM SCT050 BKN070
     FM210900 31008KT P6SM SCT100=



000
FTUS46 KHNX 202320
TAFFAT
TAF
KFAT 202320Z 2100/2124 30007KT P6SM FEW120 SCT250
     FM210200 31014G21KT P6SM BKN050
     FM210900 31009KT P6SM FEW070=



000
FTUS46 KHNX 202320
TAFMCE
TAF
KMCE 202320Z 2100/2124 32014G21KT P6SM BKN040
     FM210700 32007KT P6SM FEW070
     FM211700 32012KT P6SM SKC=



000
FTUS46 KHNX 202320
TAFBFL
TAF
KBFL 202320Z 2100/2124 32007KT P6SM SCT250
     FM210600 33012G20KT P6SM BKN050
     FM211000 33007KT P6SM BKN030
     FM212100 30010KT P6SM SCT040=



000
FTUS46 KHNX 202320
TAFMCE
TAF
KMCE 202320Z 2100/2124 32014G18KT P6SM SCT050 BKN070
     FM210400 32006KT P6SM FEW050 SCT100
     FM211800 32012KT P6SM SKC=



000
FTUS46 KHNX 201735
TAFBFL
TAF
KBFL 201735Z 2018/2118 31006KT P6SM FEW150
     FM210600 33012G20KT P6SM SCT050
     FM210900 33007KT P6SM BKN030=



000
FTUS46 KHNX 201735
TAFFAT
TAF
KFAT 201735Z 2018/2118 31007KT P6SM FEW120 SCT200
     FM210200 31013G21KT P6SM SCT050 BKN070
     FM210900 31010KT P6SM FEW050 SCT100=



000
FTUS46 KHNX 201735
TAFMCE
TAF
KMCE 201735Z 2018/2118 31009KT P6SM FEW150
     FM210000 32014G22KT P6SM SCT050 BKN070
     FM210700 32008KT P6SM FEW050 SCT100=



000
FTUS46 KHNX 201136
TAFFAT
TAF
KFAT 201136Z 2012/2112 31005KT P6SM SKC
     FM210000 31010KT P6SM SCT100 BKN250
     FM210600 31012KT P6SM OVC050=



000
FTUS46 KHNX 201136
TAFBFL
TAF
KBFL 201136Z 2012/2112 32006KT P6SM SKC
     FM210300 36005KT P6SM BKN100
     FM210600 33006KT P6SM OVC050=



000
FTUS46 KHNX 201136
TAFMCE
TAF
KMCE 201136Z 2012/2112 31006KT P6SM SKC
     FM202200 31010KT P6SM BKN100 OVC250
     FM210600 33009KT P6SM OVC050=



000
FTUS46 KHNX 200520
TAFFAT
TAF
KFAT 200520Z 2006/2106 VRB03KT P6SM SKC
     FM210000 31010KT P6SM SCT100 BKN250=



000
FTUS46 KHNX 200520
TAFMCE
TAF
KMCE 200520Z 2006/2106 VRB03KT P6SM SKC
     FM202200 31010KT P6SM BKN100 OVC250=



000
FTUS46 KHNX 200520
TAFBFL
TAF
KBFL 200520Z 2006/2106 VRB03KT P6SM SKC=



000
FTUS46 KHNX 192320
TAFMCE
TAF
KMCE 192320Z 2000/2024 VRB03KT P6SM SKC=



000
FTUS46 KHNX 192320
TAFFAT
TAF
KFAT 192320Z 2000/2024 VRB03KT P6SM SKC=



000
FTUS46 KHNX 192320
TAFBFL
TAF
KBFL 192320Z 2000/2024 VRB03KT P6SM SKC=



000
FTUS46 KHNX 192320
TAFBFL
TAF
KBFL 192320Z 2000/2024 VRB03KT P6SM SKC=



000
FTUS46 KHNX 192320
TAFFAT
TAF
KFAT 192320Z 2000/2024 VRB03KT P6SM SKC=



000
FTUS46 KHNX 192320
TAFMCE
TAF
KMCE 192320Z 2000/2024 VRB03KT P6SM SKC=



000
FTUS46 KHNX 191731
TAFBFL
TAF
KBFL 191731Z 1918/2018 VRB03KT P6SM SKC=



000
FTUS46 KHNX 191731
TAFMCE
TAF
KMCE 191731Z 1918/2018 VRB03KT P6SM SKC=



000
FTUS46 KHNX 191731
TAFFAT
TAF
KFAT 191731Z 1918/2018 VRB03KT P6SM SKC=



000
FTUS46 KHNX 191131
TAFBFL
TAF
KBFL 191131Z 1912/2012 VRB03KT P6SM SKC=



000
FTUS46 KHNX 191131
TAFMCE
TAF
KMCE 191131Z 1912/2012 VRB03KT P6SM SKC=



000
FTUS46 KHNX 191131
TAFFAT
TAF
KFAT 191131Z 1912/2012 VRB03KT P6SM SKC=



000
FTUS46 KHNX 190542
TAFBFL
TAF
KBFL 190542Z 1906/2006 00000KT P6SM SKC=



000
FTUS46 KHNX 190542
TAFMCE
TAF
KMCE 190542Z 1906/2006 00000KT P6SM SKC=



000
FTUS46 KHNX 190542
TAFFAT
TAF
KFAT 190542Z 1906/2006 00000KT P6SM SKC=



000
FTUS46 KHNX 182320
TAFMCE
TAF
KMCE 182320Z 1900/1924 32010KT P6SM SKC
     FM190300 VRB04KT P6SM SKC=



000
FTUS46 KHNX 182320
TAFFAT
TAF
KFAT 182320Z 1900/1924 VRB03KT P6SM SKC=



000
FTUS46 KHNX 182320
TAFBFL
TAF
KBFL 182320Z 1900/1924 VRB04KT P6SM SKC=



000
FTUS46 KHNX 181720
TAFFAT
TAF
KFAT 181720Z 1818/1918 VRB03KT P6SM SKC=



000
FTUS46 KHNX 181720
TAFMCE
TAF
KMCE 181720Z 1818/1918 VRB04KT P6SM SKC=



000
FTUS46 KHNX 181720
TAFBFL
TAF
KBFL 181720Z 1818/1918 VRB04KT P6SM SKC=



000
FTUS46 KHNX 181211 RRA
TAFFAT
TAF
KFAT 181211Z 1812/1912 31007KT P6SM SCT200
     FM190400 VRB02KT P6SM SKC=



000
FTUS46 KHNX 181211 RRA
TAFBFL
TAF
KBFL 181211Z 1812/1912 VRB03KT P6SM SCT150
     FM182100 31006KT P6SM FEW150
     FM190300 VRB03KT P6SM SKC=



000
FTUS46 KHNX 181211 RRA
TAFMCE
TAF
KMCE 181211Z 1812/1912 32005KT P6SM SCT200
     FM190300 VRB02KT P6SM SKC=



000
FTUS46 KHNX 180520
TAFBFL
TAF
KBFL 180520Z 1806/1906 33008KT P6SM FEW150 BKN250=



000
FTUS46 KHNX 180520
TAFFAT
TAF
KFAT 180520Z 1806/1906 31007KT P6SM SCT120 BKN200=



000
FTUS46 KHNX 180520
TAFMCE
TAF
KMCE 180520Z 1806/1906 32005KT P6SM SCT120 BKN200=



    US Dept of Commerce
    National Oceanic and Atmospheric Administration
    National Weather Service
    1325 East West Highway
    Silver Spring, MD 20910
    Page Author: NWS Internet Services Team
Disclaimer
Information Quality
Credits
Glossary
Privacy Policy
Freedom of Information Act (FOIA)
About Us
Career Opportunities